Time;durP1;ratioP1;P1;durP2;ratioP2;P2;SDS_P1;SDS_P2;PMS_P1;PMS_P2;Temp;Humidity;BMP_temperature;BMP_pressure;BME280_temperature;BME280_humidity;BME280_pressure;Samples;Min_cycle;Max_cycle;Signal;HPM_P1;HPM_P2
2022/09/27 00:02:23;;;;;;;1.20;0.50;;;8.90;99.90;;;;;;5014568;28;20187;-64
2022/09/27 00:04:49;;;;;;;1.87;0.80;;;8.80;99.90;;;;;;5014794;28;20894;-64
2022/09/27 00:07:15;;;;;;;1.20;0.60;;;8.90;99.90;;;;;;5015089;28;20195;-64
2022/09/27 00:09:40;;;;;;;1.20;0.50;;;8.90;99.90;;;;;;5015062;28;20210;-64
2022/09/27 00:12:06;;;;;;;1.40;0.60;;;8.80;99.90;;;;;;5013963;28;20246;-64
2022/09/27 00:14:31;;;;;;;1.30;0.60;;;8.80;99.90;;;;;;5014883;28;20237;-64
2022/09/27 00:16:57;;;;;;;2.23;0.70;;;8.80;99.90;;;;;;5014632;28;20221;-64
2022/09/27 00:19:24;;;;;;;1.37;0.60;;;8.80;99.90;;;;;;5013443;28;20191;-65
2022/09/27 00:21:50;;;;;;;1.87;0.70;;;8.80;99.90;;;;;;5015179;28;20705;-64
2022/09/27 00:24:21;;;;;;;2.03;0.93;;;8.80;99.90;;;;;;5015142;28;20465;-64
2022/09/27 00:26:47;;;;;;;1.87;0.87;;;8.80;99.90;;;;;;5013723;28;20933;-64
2022/09/27 00:29:15;;;;;;;4.70;0.90;;;8.80;99.90;;;;;;5014078;28;20422;-64
2022/09/27 00:31:41;;;;;;;1.20;0.50;;;8.80;99.90;;;;;;5014299;28;20481;-64
2022/09/27 00:34:10;;;;;;;1.20;0.50;;;8.80;99.90;;;;;;5014424;28;20425;-64
2022/09/27 00:36:36;;;;;;;1.23;0.50;;;8.80;99.90;;;;;;5014069;28;20426;-64
2022/09/27 00:39:02;;;;;;;1.53;0.60;;;8.80;99.90;;;;;;5013424;28;20499;-64
2022/09/27 00:41:31;;;;;;;1.20;0.50;;;8.80;99.90;;;;;;5014277;28;20182;-64
2022/09/27 00:44:03;;;;;;;1.60;0.67;;;8.80;99.90;;;;;;5013759;28;21032;-64
2022/09/27 00:46:40;;;;;;;2.43;0.60;;;8.80;99.90;;;;;;5013500;28;20433;-64
2022/09/27 00:49:12;;;;;;;1.20;0.50;;;8.80;99.90;;;;;;5014251;28;20449;-64
2022/09/27 00:51:40;;;;;;;1.20;0.50;;;8.80;99.90;;;;;;5013570;28;20521;-64
2022/09/27 00:54:10;;;;;;;1.80;0.50;;;8.80;99.90;;;;;;5013896;28;20422;-64
2022/09/27 00:56:36;;;;;;;1.90;0.83;;;8.90;99.90;;;;;;5013449;28;20418;-64
2022/09/27 00:59:19;;;;;;;2.33;0.70;;;8.90;99.90;;;;;;5011492;28;20446;-64
2022/09/27 01:01:45;;;;;;;1.50;0.60;;;8.80;99.90;;;;;;5013446;28;20440;-64
2022/09/27 01:04:13;;;;;;;1.20;0.50;;;8.80;99.90;;;;;;5013907;28;20608;-64
2022/09/27 01:06:39;;;;;;;4.13;0.90;;;8.80;99.90;;;;;;5013517;28;20445;-64
2022/09/27 01:09:07;;;;;;;2.07;0.70;;;8.80;99.90;;;;;;5012741;28;20438;-64
2022/09/27 01:11:46;;;;;;;2.10;1.10;;;8.80;99.90;;;;;;5012764;28;20691;-64
2022/09/27 01:14:27;;;;;;;1.80;0.50;;;8.80;99.90;;;;;;5013382;28;20422;-65
2022/09/27 01:17:11;;;;;;;1.30;0.70;;;8.90;99.90;;;;;;5013350;28;20842;-64
2022/09/27 01:20:01;;;;;;;1.30;0.60;;;8.90;99.90;;;;;;5013324;28;20472;-64
2022/09/27 01:22:46;;;;;;;1.30;0.50;;;8.90;99.90;;;;;;5013371;28;20553;-64
2022/09/27 01:25:21;;;;;;;1.30;0.60;;;8.90;99.90;;;;;;5012805;28;21762;-64
2022/09/27 01:27:50;;;;;;;1.40;0.63;;;9.00;99.90;;;;;;5013473;28;20421;-65
2022/09/27 01:30:18;;;;;;;1.10;0.50;;;8.90;99.90;;;;;;5012844;28;20422;-64
2022/09/27 01:33:17;;;;;;;1.43;0.60;;;9.00;99.90;;;;;;5000493;28;20504;-65
2022/09/27 01:36:19;;;;;;;1.70;0.60;;;9.00;99.90;;;;;;5013000;28;20429;-64
2022/09/27 01:39:21;;;;;;;1.40;0.83;;;9.00;99.90;;;;;;5013279;28;20898;-64
2022/09/27 01:42:02;;;;;;;1.20;0.50;;;9.00;99.90;;;;;;5013452;28;20413;-64
2022/09/27 01:44:28;;;;;;;1.80;0.70;;;9.00;99.90;;;;;;5012216;28;20815;-64
2022/09/27 01:46:57;;;;;;;1.53;0.57;;;9.00;99.90;;;;;;5012603;28;20499;-64
2022/09/27 01:49:49;;;;;;;1.30;0.70;;;9.00;99.90;;;;;;5012991;28;20241;-64
2022/09/27 01:52:19;;;;;;;3.17;0.90;;;9.00;99.90;;;;;;5010286;28;20473;-64
2022/09/27 01:54:51;;;;;;;1.27;0.63;;;9.00;99.90;;;;;;5012926;28;20962;-64
2022/09/27 01:57:22;;;;;;;1.40;0.67;;;9.00;99.90;;;;;;5023549;28;20489;-64
2022/09/27 02:00:01;;;;;;;1.70;0.87;;;9.00;99.90;;;;;;5028711;28;20561;-63
2022/09/27 02:02:30;;;;;;;1.43;0.57;;;9.00;99.90;;;;;;5030245;28;20433;-64
2022/09/27 02:04:59;;;;;;;1.20;0.50;;;9.00;99.90;;;;;;5032352;28;20468;-64
2022/09/27 02:07:42;;;;;;;1.20;0.50;;;9.00;99.90;;;;;;5032462;28;20417;-64
2022/09/27 02:10:36;;;;;;;1.10;0.50;;;9.10;99.90;;;;;;5027890;28;20782;-63
2022/09/27 02:13:22;;;;;;;1.50;0.60;;;9.10;99.90;;;;;;5016007;28;20469;-65
2022/09/27 02:15:57;;;;;;;1.10;0.43;;;9.10;99.90;;;;;;4994865;28;20577;-66
2022/09/27 02:18:48;;;;;;;2.03;0.70;;;9.10;99.90;;;;;;5012669;28;20452;-65
2022/09/27 02:21:17;;;;;;;1.30;0.50;;;9.10;99.90;;;;;;5012655;28;20425;-65
2022/09/27 02:23:51;;;;;;;1.57;0.60;;;9.20;99.90;;;;;;5012399;28;20422;-65
2022/09/27 02:26:23;;;;;;;1.20;0.60;;;9.10;99.90;;;;;;5012420;28;20799;-65
2022/09/27 02:29:01;;;;;;;1.90;0.80;;;9.20;99.90;;;;;;5012064;28;20421;-65
2022/09/27 02:31:26;;;;;;;4.93;0.63;;;9.10;99.90;;;;;;5012580;28;20429;-66
2022/09/27 02:33:58;;;;;;;1.27;0.57;;;9.10;99.90;;;;;;5011595;28;20823;-66
2022/09/27 02:36:24;;;;;;;1.20;0.57;;;9.10;99.90;;;;;;5011937;28;20240;-66
2022/09/27 02:38:50;;;;;;;1.50;0.70;;;9.10;99.90;;;;;;5011858;28;20980;-66
2022/09/27 02:41:20;;;;;;;1.40;0.50;;;9.10;99.90;;;;;;5011469;28;20175;-66
2022/09/27 02:43:51;;;;;;;1.30;0.60;;;9.10;99.90;;;;;;5012059;28;20198;-66
2022/09/27 02:46:38;;;;;;;3.00;1.23;;;9.10;99.90;;;;;;5011095;28;20434;-67
2022/09/27 02:49:15;;;;;;;3.73;0.70;;;9.00;99.90;;;;;;5000049;28;20576;-66
2022/09/27 02:51:41;;;;;;;1.20;0.50;;;9.00;99.90;;;;;;5012239;28;20429;-66
2022/09/27 02:54:39;;;;;;;1.30;0.60;;;9.00;99.90;;;;;;5012256;28;20426;-66
2022/09/27 02:57:25;;;;;;;2.07;0.50;;;9.00;99.90;;;;;;5000803;28;20666;-66
2022/09/27 03:00:12;;;;;;;1.20;0.50;;;8.90;99.90;;;;;;5010524;28;20464;-67
2022/09/27 03:02:53;;;;;;;1.20;0.50;;;8.90;99.90;;;;;;5011661;28;20464;-67
2022/09/27 03:05:26;;;;;;;1.77;0.60;;;8.90;99.90;;;;;;4999368;28;20422;-66
2022/09/27 03:07:52;;;;;;;1.20;0.50;;;8.90;99.90;;;;;;5012185;28;20512;-67
2022/09/27 03:10:24;;;;;;;1.20;0.50;;;8.90;99.90;;;;;;5011031;28;20846;-66
2022/09/27 03:12:50;;;;;;;1.20;0.47;;;8.90;99.90;;;;;;5011871;28;20221;-66
2022/09/27 03:15:15;;;;;;;1.47;0.50;;;8.90;99.90;;;;;;5010907;28;20907;-67
2022/09/27 03:17:41;;;;;;;1.27;0.47;;;8.90;99.90;;;;;;5011926;28;20430;-64
2022/09/27 03:20:07;;;;;;;1.10;0.50;;;8.90;99.90;;;;;;5011754;28;20663;-64
2022/09/27 03:22:34;;;;;;;1.10;0.40;;;8.90;99.90;;;;;;5011878;28;20186;-64
2022/09/27 03:25:00;;;;;;;1.60;0.80;;;8.90;99.90;;;;;;5011103;28;20765;-64
2022/09/27 03:27:25;;;;;;;3.27;0.90;;;8.90;99.90;;;;;;5011777;28;20480;-65
2022/09/27 03:29:51;;;;;;;1.57;0.67;;;8.80;99.90;;;;;;5011368;28;20191;-65
2022/09/27 03:32:17;;;;;;;3.87;1.07;;;8.80;99.90;;;;;;5011720;28;20211;-65
2022/09/27 03:34:43;;;;;;;4.70;0.90;;;8.80;99.90;;;;;;5011507;28;20679;-65
2022/09/27 03:37:09;;;;;;;1.60;0.70;;;8.70;99.90;;;;;;5011292;28;20432;-65
2022/09/27 03:39:34;;;;;;;10.13;0.90;;;8.80;99.90;;;;;;5011307;28;20266;-65
2022/09/27 03:42:00;;;;;;;3.87;1.13;;;8.70;99.90;;;;;;5011831;28;20229;-67
2022/09/27 03:44:25;;;;;;;2.07;0.80;;;8.70;99.90;;;;;;5010832;28;20195;-65
2022/09/27 03:46:51;;;;;;;3.63;1.13;;;8.70;99.90;;;;;;5011479;28;20209;-65
2022/09/27 03:49:17;;;;;;;1.40;0.70;;;8.60;99.90;;;;;;5011558;28;20232;-65
2022/09/27 03:51:42;;;;;;;3.33;0.97;;;8.60;99.90;;;;;;5010667;28;20241;-65
2022/09/27 03:54:08;;;;;;;1.60;0.97;;;8.60;99.90;;;;;;5013948;28;20180;-65
2022/09/27 03:56:34;;;;;;;2.73;1.20;;;8.60;99.90;;;;;;5014838;28;20282;-65
2022/09/27 03:59:00;;;;;;;2.50;0.90;;;8.60;99.90;;;;;;5013836;28;20996;-65
2022/09/27 04:01:26;;;;;;;2.33;0.93;;;8.60;99.90;;;;;;5015729;28;20187;-65
2022/09/27 04:03:52;;;;;;;1.30;0.70;;;8.60;99.90;;;;;;5015340;28;20187;-65
2022/09/27 04:06:18;;;;;;;5.10;0.73;;;8.60;99.90;;;;;;5015021;28;20750;-65
2022/09/27 04:08:45;;;;;;;1.60;1.07;;;8.60;99.90;;;;;;5014988;28;20521;-65
2022/09/27 04:11:10;;;;;;;2.03;1.00;;;8.60;99.90;;;;;;5014869;28;20426;-65
2022/09/27 04:13:36;;;;;;;4.90;1.33;;;8.60;99.90;;;;;;5014606;28;21089;-65
2022/09/27 04:16:02;;;;;;;4.47;1.10;;;8.60;99.90;;;;;;5014599;28;20187;-65
2022/09/27 04:18:29;;;;;;;2.80;1.10;;;8.60;99.90;;;;;;5015218;28;20179;-65
2022/09/27 04:20:54;;;;;;;3.00;1.20;;;8.60;99.90;;;;;;5014971;28;20965;-64
2022/09/27 04:23:20;;;;;;;1.87;1.00;;;8.50;99.90;;;;;;5014864;28;20430;-64
2022/09/27 04:25:46;;;;;;;2.77;1.13;;;8.50;99.90;;;;;;5014213;28;20197;-64
2022/09/27 04:28:12;;;;;;;3.10;1.30;;;8.50;99.90;;;;;;5014971;28;20194;-65
2022/09/27 04:30:38;;;;;;;2.10;0.70;;;8.50;99.90;;;;;;5014382;28;20521;-65
2022/09/27 04:33:04;;;;;;;2.83;1.10;;;8.40;99.90;;;;;;5014702;28;20211;-64
2022/09/27 04:38:14;;;;;;;2.00;0.90;;;8.40;99.90;;;;;;5015190;28;20476;-65
2022/09/27 04:40:40;;;;;;;2.20;0.90;;;8.40;99.90;;;;;;5014465;28;20421;-64
2022/09/27 04:43:06;;;;;;;1.50;0.70;;;8.30;99.90;;;;;;5014721;28;20418;-65
2022/09/27 04:45:32;;;;;;;4.43;1.20;;;8.30;99.90;;;;;;5013846;28;21294;-64
2022/09/27 04:47:58;;;;;;;2.50;1.20;;;8.40;99.90;;;;;;5014698;28;20187;-64
2022/09/27 04:50:24;;;;;;;3.70;0.83;;;8.40;99.90;;;;;;5013981;28;20918;-64
2022/09/27 04:52:51;;;;;;;3.03;0.87;;;8.40;99.90;;;;;;5014495;28;20223;-64
2022/09/27 04:55:17;;;;;;;2.63;1.20;;;8.40;99.90;;;;;;5013558;28;20414;-64
2022/09/27 04:57:43;;;;;;;1.57;0.70;;;8.40;99.90;;;;;;5014313;28;20426;-64
2022/09/27 05:00:10;;;;;;;5.37;1.33;;;8.40;99.90;;;;;;5012599;28;20442;-64
2022/09/27 05:02:35;;;;;;;2.57;1.00;;;8.40;99.90;;;;;;5014113;28;20187;-64
2022/09/27 05:05:01;;;;;;;1.93;1.00;;;8.40;99.90;;;;;;5013360;28;20432;-64
2022/09/27 05:07:27;;;;;;;1.30;0.60;;;8.30;99.90;;;;;;5014265;28;20222;-64
2022/09/27 05:09:54;;;;;;;1.40;0.60;;;8.30;99.90;;;;;;5013662;28;20377;-64
2022/09/27 05:12:20;;;;;;;1.33;0.67;;;8.20;99.90;;;;;;5014086;28;20462;-64
2022/09/27 05:14:46;;;;;;;2.20;0.80;;;8.20;99.90;;;;;;5013456;28;20533;-64
2022/09/27 05:17:11;;;;;;;1.67;0.70;;;8.20;99.90;;;;;;5013415;28;20504;-64
2022/09/27 05:19:38;;;;;;;3.63;1.10;;;8.20;99.90;;;;;;5013857;28;20190;-64
2022/09/27 05:22:05;;;;;;;1.77;0.70;;;8.20;99.90;;;;;;5014046;28;20198;-64
2022/09/27 05:24:32;;;;;;;1.20;0.50;;;8.20;99.90;;;;;;4996076;28;20429;-64
2022/09/27 05:26:58;;;;;;;1.30;0.70;;;8.20;99.90;;;;;;5013057;28;20452;-64
2022/09/27 05:29:25;;;;;;;2.50;1.10;;;8.20;99.90;;;;;;5013167;28;20473;-64
2022/09/27 05:31:51;;;;;;;7.83;0.80;;;8.20;99.90;;;;;;5013582;28;20553;-64
2022/09/27 05:34:19;;;;;;;1.20;0.60;;;8.10;99.90;;;;;;5013571;28;20188;-64
2022/09/27 05:36:46;;;;;;;2.17;1.13;;;8.10;99.90;;;;;;5013426;28;20178;-64
2022/09/27 05:39:12;;;;;;;1.50;1.00;;;8.00;99.90;;;;;;5013398;28;20529;-64
2022/09/27 05:41:39;;;;;;;1.20;0.63;;;8.00;99.90;;;;;;5013330;28;20855;-64
2022/09/27 05:44:05;;;;;;;1.60;0.70;;;8.00;99.90;;;;;;5013521;28;20190;-64
2022/09/27 05:46:31;;;;;;;1.67;0.97;;;8.00;99.90;;;;;;5020155;28;20414;-64
2022/09/27 05:48:56;;;;;;;1.30;0.60;;;8.00;99.90;;;;;;5013258;28;20175;-64
2022/09/27 05:51:22;;;;;;;4.40;1.03;;;8.10;99.90;;;;;;5014867;28;20312;-64
2022/09/27 05:53:48;;;;;;;5.73;1.20;;;8.00;99.90;;;;;;5012367;28;20214;-64
2022/09/27 05:56:13;;;;;;;1.97;0.90;;;8.00;99.90;;;;;;5012623;28;20194;-64
2022/09/27 05:58:39;;;;;;;2.30;1.07;;;8.10;99.90;;;;;;5011280;28;20226;-64
2022/09/27 06:01:08;;;;;;;1.50;0.60;;;8.10;99.90;;;;;;5013236;28;20178;-65
2022/09/27 06:03:35;;;;;;;1.50;0.60;;;8.20;99.90;;;;;;5012597;28;20191;-64
2022/09/27 06:06:04;;;;;;;1.83;0.60;;;8.20;99.90;;;;;;5011331;28;20426;-64
2022/09/27 06:08:33;;;;;;;1.33;0.60;;;8.20;99.90;;;;;;5012029;28;20418;-64
2022/09/27 06:11:04;;;;;;;1.40;0.63;;;8.20;99.90;;;;;;5012366;28;20421;-64
2022/09/27 06:13:35;;;;;;;1.80;0.60;;;8.30;99.90;;;;;;5012475;28;20474;-64
2022/09/27 06:16:02;;;;;;;4.23;0.60;;;8.30;99.90;;;;;;5011787;28;20809;-64
2022/09/27 06:18:28;;;;;;;1.57;0.67;;;8.40;99.90;;;;;;5012863;28;20457;-64
2022/09/27 06:20:54;;;;;;;4.23;1.13;;;8.50;99.90;;;;;;5012728;28;20418;-64
2022/09/27 06:23:21;;;;;;;2.67;1.00;;;8.60;99.90;;;;;;5012532;28;20423;-64
2022/09/27 06:25:49;;;;;;;1.73;0.93;;;8.60;99.90;;;;;;5011987;28;20497;-64
2022/09/27 06:28:15;;;;;;;1.93;0.80;;;8.60;99.90;;;;;;5012549;28;20426;-64
2022/09/27 06:30:43;;;;;;;8.83;0.70;;;8.60;99.90;;;;;;5012483;28;20548;-64
2022/09/27 06:33:12;;;;;;;1.40;0.60;;;8.60;99.90;;;;;;5012469;28;20458;-64
2022/09/27 06:35:38;;;;;;;1.87;0.70;;;8.50;99.90;;;;;;5011900;28;20429;-64
2022/09/27 06:38:07;;;;;;;2.20;0.80;;;8.50;99.90;;;;;;5012466;28;21088;-64
2022/09/27 06:40:33;;;;;;;1.30;0.50;;;8.50;99.90;;;;;;5012388;28;20450;-66
2022/09/27 06:43:03;;;;;;;1.10;0.40;;;8.50;99.90;;;;;;5012560;28;20530;-65
2022/09/27 06:45:30;;;;;;;1.30;0.60;;;8.50;99.90;;;;;;5029006;28;20413;-65
2022/09/27 06:47:56;;;;;;;1.10;0.40;;;8.40;99.90;;;;;;5030402;28;20421;-65
2022/09/27 06:50:22;;;;;;;1.10;0.40;;;8.40;99.90;;;;;;5027425;28;20901;-65
2022/09/27 06:52:49;;;;;;;1.20;0.47;;;8.40;99.90;;;;;;5028630;28;20465;-65
2022/09/27 06:55:15;;;;;;;1.87;0.83;;;8.40;99.90;;;;;;5030047;28;20183;-64
2022/09/27 07:00:25;;;;;;;1.70;0.70;;;8.40;99.90;;;;;;5010315;28;20437;-65
2022/09/27 07:02:53;;;;;;;1.20;0.40;;;8.50;99.90;;;;;;5012249;28;20422;-65
2022/09/27 07:05:19;;;;;;;1.10;0.40;;;8.50;99.90;;;;;;5011766;28;20191;-65
2022/09/27 07:07:47;;;;;;;1.10;0.40;;;8.60;99.90;;;;;;5011881;28;20422;-65
2022/09/27 07:10:13;;;;;;;1.40;0.57;;;8.60;99.90;;;;;;5011813;28;20500;-65
2022/09/27 07:12:39;;;;;;;1.40;0.70;;;8.60;99.90;;;;;;5012036;28;20552;-65
2022/09/27 07:15:05;;;;;;;1.83;0.50;;;8.60;99.90;;;;;;5011197;28;20914;-65
2022/09/27 07:17:31;;;;;;;1.50;0.60;;;8.70;99.90;;;;;;5012793;28;20182;-65
2022/09/27 07:19:56;;;;;;;1.20;0.40;;;8.70;99.90;;;;;;5024202;28;20418;-65
2022/09/27 07:22:22;;;;;;;1.30;0.53;;;8.80;99.90;;;;;;5012107;28;20179;-69
2022/09/27 07:24:48;;;;;;;1.33;0.70;;;8.90;99.90;;;;;;5011858;28;20222;-69
2022/09/27 07:27:14;;;;;;;1.73;0.60;;;9.00;99.90;;;;;;5012496;28;20223;-69
2022/09/27 07:29:40;;;;;;;2.43;0.63;;;9.10;99.90;;;;;;5015348;28;20581;-69
2022/09/27 07:32:06;;;;;;;3.30;1.03;;;9.10;99.90;;;;;;5015823;28;20545;-69
2022/09/27 07:34:35;;;;;;;2.13;0.50;;;9.10;99.90;;;;;;5016420;28;20682;-69
2022/09/27 07:37:02;;;;;;;1.30;0.50;;;9.00;99.90;;;;;;5015403;28;20410;-64
2022/09/27 07:39:27;;;;;;;1.13;0.40;;;9.00;99.90;;;;;;5015647;28;20414;-65
2022/09/27 07:41:53;;;;;;;1.20;0.50;;;9.00;99.90;;;;;;5015654;28;20977;-64
2022/09/27 07:44:19;;;;;;;1.20;0.40;;;9.30;99.90;;;;;;5022336;28;20891;-65
2022/09/27 07:46:44;;;;;;;1.60;0.60;;;9.40;99.90;;;;;;5020020;28;20675;-65
2022/09/27 07:49:10;;;;;;;3.83;0.70;;;9.40;99.90;;;;;;5016209;28;20232;-65
2022/09/27 07:51:35;;;;;;;1.17;0.40;;;9.40;99.90;;;;;;5017649;28;20243;-65
2022/09/27 07:54:01;;;;;;;2.17;0.60;;;9.40;99.90;;;;;;5004990;28;20676;-65
2022/09/27 07:56:27;;;;;;;1.20;0.50;;;9.30;99.90;;;;;;5014467;28;20724;-65
2022/09/27 07:58:53;;;;;;;2.30;0.67;;;9.30;99.90;;;;;;5017840;28;20236;-65
2022/09/27 08:01:19;;;;;;;2.43;0.63;;;9.70;99.90;;;;;;5016692;28;20417;-65
2022/09/27 08:03:45;;;;;;;2.03;0.60;;;10.30;99.90;;;;;;5015316;28;20508;-65
2022/09/27 08:06:11;;;;;;;1.30;0.50;;;10.40;99.90;;;;;;5014953;28;20513;-65
2022/09/27 08:08:38;;;;;;;1.50;0.50;;;10.40;99.90;;;;;;5014842;28;20188;-65
2022/09/27 08:11:14;;;;;;;1.20;0.50;;;10.30;99.90;;;;;;5014709;28;20282;-65
2022/09/27 08:13:44;;;;;;;1.20;0.40;;;10.10;99.90;;;;;;5014690;28;20461;-65
2022/09/27 08:16:10;;;;;;;1.97;0.60;;;10.00;99.90;;;;;;5014718;28;20417;-65
2022/09/27 08:18:36;;;;;;;5.33;0.70;;;10.00;99.90;;;;;;5015123;28;20777;-65
2022/09/27 08:21:03;;;;;;;1.37;0.53;;;9.90;99.90;;;;;;5014804;28;20656;-65
2022/09/27 08:23:29;;;;;;;1.20;0.40;;;10.10;99.90;;;;;;5014368;28;20901;-65
2022/09/27 08:25:58;;;;;;;5.80;0.70;;;10.30;99.90;;;;;;5013873;28;20461;-65
2022/09/27 08:28:25;;;;;;;1.40;0.60;;;10.20;99.90;;;;;;5014310;28;20426;-65
2022/09/27 08:30:50;;;;;;;1.20;0.50;;;10.30;99.90;;;;;;5014712;28;20464;-64
2022/09/27 08:33:16;;;;;;;1.20;0.50;;;10.00;99.90;;;;;;5014424;28;20489;-64
2022/09/27 08:35:42;;;;;;;1.20;0.40;;;9.80;99.90;;;;;;5014157;28;20194;-65
2022/09/27 08:38:09;;;;;;;1.20;0.40;;;9.60;99.90;;;;;;5014694;28;20184;-65
2022/09/27 08:40:43;;;;;;;2.67;0.60;;;9.40;99.90;;;;;;5013223;28;20183;-65
2022/09/27 08:43:14;;;;;;;1.40;0.50;;;9.10;99.90;;;;;;5014693;28;20468;-65
2022/09/27 08:45:45;;;;;;;1.40;0.50;;;8.90;99.90;;;;;;5013796;28;20425;-65
2022/09/27 08:48:12;;;;;;;1.23;0.60;;;8.80;99.90;;;;;;5014392;28;20414;-65
2022/09/27 08:50:44;;;;;;;1.17;0.50;;;8.80;99.90;;;;;;5014275;28;20429;-65
2022/09/27 08:53:13;;;;;;;1.30;0.50;;;9.00;99.90;;;;;;5014254;28;20458;-65
2022/09/27 08:55:46;;;;;;;1.13;0.40;;;9.00;99.90;;;;;;5013357;28;20418;-64
2022/09/27 08:58:39;;;;;;;1.20;0.40;;;9.10;99.90;;;;;;5014009;28;20430;-65
2022/09/27 09:01:14;;;;;;;1.30;0.70;;;9.10;99.90;;;;;;5010400;28;20473;-65
2022/09/27 09:03:48;;;;;;;1.40;0.50;;;9.20;99.90;;;;;;5012172;28;20417;-65
2022/09/27 09:06:33;;;;;;;1.77;0.70;;;9.20;99.90;;;;;;5023019;28;20425;-64
2022/09/27 09:09:23;;;;;;;1.57;0.60;;;9.20;99.90;;;;;;5010256;28;20434;-65
2022/09/27 09:15:09;;;;;;;1.20;0.50;;;9.30;99.90;;;;;;5011436;28;20486;-65
2022/09/27 09:17:43;;;;;;;1.20;0.50;;;9.40;99.90;;;;;;5012685;28;20416;-65
2022/09/27 09:20:15;;;;;;;1.50;0.50;;;9.60;99.90;;;;;;5012220;28;20873;-65
2022/09/27 09:23:04;;;;;;;2.03;0.87;;;9.60;99.90;;;;;;5012440;28;20418;-65
2022/09/27 09:26:00;;;;;;;1.93;0.70;;;9.70;99.90;;;;;;5013047;28;20509;-65
2022/09/27 09:28:35;;;;;;;5.20;0.63;;;9.90;99.90;;;;;;5012156;28;20414;-65
2022/09/27 09:31:00;;;;;;;1.30;0.50;;;10.40;99.90;;;;;;5012253;28;20956;-65
2022/09/27 09:33:30;;;;;;;1.30;0.57;;;10.70;99.90;;;;;;5012333;28;20461;-65
2022/09/27 09:36:02;;;;;;;1.57;0.77;;;10.90;99.90;;;;;;5011365;28;20185;-65
2022/09/27 09:39:09;;;;;;;2.33;0.70;;;10.80;99.90;;;;;;5011952;28;20429;-65
2022/09/27 09:42:02;;;;;;;2.33;0.87;;;10.70;99.90;;;;;;4963545;28;20524;-65
2022/09/27 09:44:40;;;;;;;1.23;0.57;;;11.00;99.90;;;;;;5001789;28;20452;-65
2022/09/27 09:47:15;;;;;;;1.40;0.57;;;11.30;99.90;;;;;;5011532;28;20917;-65
2022/09/27 09:49:50;;;;;;;1.73;0.67;;;11.40;99.90;;;;;;5012091;28;20976;-65
2022/09/27 09:52:23;;;;;;;1.40;0.70;;;11.50;99.90;;;;;;5011251;28;20465;-65
2022/09/27 09:55:04;;;;;;;1.40;0.60;;;11.30;99.90;;;;;;5011702;28;20414;-65
2022/09/27 09:57:46;;;;;;;2.07;0.67;;;11.10;99.90;;;;;;5011600;28;20422;-65
2022/09/27 10:00:16;;;;;;;4.40;0.60;;;10.90;99.90;;;;;;5010769;28;21364;-65
2022/09/27 10:02:44;;;;;;;2.37;0.80;;;10.90;99.90;;;;;;5011556;28;20910;-65
2022/09/27 10:05:21;;;;;;;5.83;1.47;;;11.00;99.90;;;;;;5011453;28;20436;-64
2022/09/27 10:07:49;;;;;;;1.80;0.90;;;11.10;99.90;;;;;;5011338;28;20414;-65
2022/09/27 10:10:18;;;;;;;3.80;1.10;;;11.10;99.90;;;;;;5025557;28;20429;-64
2022/09/27 10:12:44;;;;;;;2.47;0.90;;;11.20;99.90;;;;;;5016089;28;20469;-65
2022/09/27 10:15:21;;;;;;;3.63;0.63;;;11.30;99.90;;;;;;5010301;28;20847;-64
2022/09/27 10:17:50;;;;;;;2.03;0.80;;;11.40;99.90;;;;;;5010298;28;21183;-64
2022/09/27 10:20:44;;;;;;;1.40;0.63;;;11.30;99.90;;;;;;5010121;28;20415;-64
2022/09/27 10:23:20;;;;;;;1.43;0.60;;;11.30;99.90;;;;;;4999288;28;20468;-64
2022/09/27 10:26:01;;;;;;;4.00;1.00;;;11.20;99.90;;;;;;5010381;28;20468;-64
2022/09/27 10:28:44;;;;;;;1.20;0.53;;;11.10;99.90;;;;;;5016974;28;20532;-64
2022/09/27 10:31:17;;;;;;;1.30;0.50;;;11.20;99.90;;;;;;5011521;28;20432;-64
2022/09/27 10:34:01;;;;;;;2.13;0.80;;;11.50;99.90;;;;;;5010739;28;20478;-65
2022/09/27 11:22:27;;;;;;;1.57;0.70;;;12.80;98.80;;;;;;5120701;27;21139;-65
2022/09/27 11:25:02;;;;;;;1.30;0.50;;;12.10;99.90;;;;;;5128157;28;20893;-64
2022/09/27 11:27:30;;;;;;;2.70;0.80;;;11.70;99.90;;;;;;5126098;28;20416;-64
2022/09/27 11:30:15;;;;;;;1.30;0.60;;;11.50;99.90;;;;;;5128616;28;20464;-64
2022/09/27 11:33:14;;;;;;;2.13;0.73;;;11.20;99.90;;;;;;5128026;28;20424;-65
2022/09/27 11:35:52;;;;;;;17.23;2.47;;;10.90;99.90;;;;;;5126989;28;20425;-65
2022/09/27 11:38:27;;;;;;;12.03;3.67;;;10.70;99.90;;;;;;5127555;28;20419;-65
2022/09/27 11:40:52;;;;;;;17.73;3.07;;;10.80;99.90;;;;;;5125403;28;20427;-65
2022/09/27 11:43:36;;;;;;;1.90;0.73;;;10.90;99.90;;;;;;5126331;28;20420;-65
2022/09/27 11:46:20;;;;;;;1.83;0.80;;;10.90;99.90;;;;;;5125150;28;20187;-65
2022/09/27 11:49:24;;;;;;;5.37;0.97;;;11.00;99.90;;;;;;5121038;28;20784;-65
2022/09/27 11:52:05;;;;;;;1.60;0.90;;;11.00;99.90;;;;;;5073419;28;20488;-65
2022/09/27 11:54:49;;;;;;;1.40;0.60;;;11.00;99.90;;;;;;5114275;28;20424;-64
2022/09/27 11:57:43;;;;;;;1.70;0.80;;;10.90;99.90;;;;;;5121075;27;20416;-65
2022/09/27 12:00:17;;;;;;;3.23;0.90;;;10.70;99.90;;;;;;5118219;28;20536;-65
2022/09/27 12:03:08;;;;;;;5.10;1.00;;;10.50;99.90;;;;;;5125713;28;20408;-65
2022/09/27 12:05:52;;;;;;;1.77;0.63;;;10.30;99.90;;;;;;5126803;28;20528;-65
2022/09/27 12:08:26;;;;;;;1.50;0.70;;;10.10;99.90;;;;;;5126490;28;20438;-65
2022/09/27 12:11:02;;;;;;;1.40;0.70;;;9.90;99.90;;;;;;5113889;28;20493;-65
2022/09/27 12:13:46;;;;;;;1.30;0.60;;;9.90;99.90;;;;;;5124797;27;20452;-65
2022/09/27 12:16:16;;;;;;;3.90;1.17;;;9.80;99.90;;;;;;5125790;28;20468;-65
2022/09/27 12:18:43;;;;;;;1.73;0.80;;;9.90;99.90;;;;;;5127308;28;20493;-65
2022/09/27 12:21:11;;;;;;;2.53;1.03;;;9.90;99.90;;;;;;5125381;28;20452;-65
2022/09/27 12:23:44;;;;;;;2.13;1.00;;;9.90;99.90;;;;;;5113055;28;20424;-65
2022/09/27 12:26:27;;;;;;;5.07;0.87;;;9.90;99.90;;;;;;5113342;28;20925;-65
2022/09/27 12:29:00;;;;;;;4.80;0.60;;;10.00;99.90;;;;;;5094865;28;20804;-65
2022/09/27 12:31:32;;;;;;;1.30;0.60;;;10.00;99.90;;;;;;5113575;28;20556;-65
2022/09/27 12:34:18;;;;;;;6.20;1.03;;;9.90;99.90;;;;;;5113292;28;20417;-65
2022/09/27 12:36:52;;;;;;;1.43;0.60;;;9.80;99.90;;;;;;5100567;28;20415;-65
2022/09/27 12:39:24;;;;;;;1.93;1.00;;;9.80;99.90;;;;;;5112881;28;20420;-66
2022/09/27 12:42:25;;;;;;;2.70;0.83;;;9.90;99.90;;;;;;5112395;28;20421;-65
2022/09/27 12:44:51;;;;;;;2.83;0.67;;;9.80;99.90;;;;;;5055860;28;20470;-65
2022/09/27 12:47:35;;;;;;;2.93;1.13;;;9.80;99.90;;;;;;5097567;28;20802;-65
2022/09/27 12:50:32;;;;;;;4.30;1.03;;;9.70;99.90;;;;;;5101530;28;20988;-65
2022/09/27 12:53:24;;;;;;;2.20;0.90;;;9.80;99.90;;;;;;5093455;28;20478;-65
2022/09/27 12:56:14;;;;;;;5.57;1.03;;;10.00;99.90;;;;;;5090298;28;20510;-65
2022/09/27 12:58:51;;;;;;;6.30;1.60;;;10.00;99.90;;;;;;5112875;28;20432;-65
2022/09/27 13:01:30;;;;;;;1.90;1.10;;;9.90;99.90;;;;;;5113173;28;20465;-65
2022/09/27 13:04:09;;;;;;;3.47;0.83;;;9.90;99.90;;;;;;5115057;27;20809;-66
2022/09/27 13:06:57;;;;;;;2.30;0.73;;;9.90;99.90;;;;;;5101222;28;20426;-65
2022/09/27 13:09:50;;;;;;;5.80;1.10;;;9.90;99.90;;;;;;5114201;28;20414;-65
2022/09/27 13:12:19;;;;;;;1.60;0.80;;;9.90;99.90;;;;;;5113918;28;20790;-65
2022/09/27 13:15:02;;;;;;;1.50;0.70;;;10.00;99.90;;;;;;5113608;28;20504;-65
2022/09/27 13:17:55;;;;;;;3.10;1.33;;;9.90;99.90;;;;;;5114446;28;20939;-65
2022/09/27 13:20:29;;;;;;;1.97;0.63;;;9.90;99.90;;;;;;5103515;28;20437;-64
2022/09/27 13:22:59;;;;;;;1.50;0.70;;;9.90;99.90;;;;;;5113229;28;20413;-65
2022/09/27 13:25:52;;;;;;;1.20;0.50;;;10.00;99.90;;;;;;5112805;28;20512;-65
2022/09/27 13:28:47;;;;;;;1.30;0.50;;;10.00;99.90;;;;;;5101513;28;20443;-65
2022/09/27 13:31:15;;;;;;;1.20;0.47;;;10.20;99.90;;;;;;5102462;28;20506;-65
2022/09/27 13:33:45;;;;;;;1.63;0.60;;;10.40;99.90;;;;;;5112333;28;20437;-65
2022/09/27 13:36:30;;;;;;;2.10;0.73;;;10.50;99.90;;;;;;5113659;28;20501;-65
2022/09/27 13:39:10;;;;;;;1.50;0.50;;;10.60;99.90;;;;;;5112413;28;20424;-65
2022/09/27 13:41:47;;;;;;;3.30;0.67;;;10.60;99.90;;;;;;5112977;28;20415;-65
2022/09/27 13:44:19;;;;;;;1.30;0.50;;;10.40;99.90;;;;;;5112771;28;20421;-65
2022/09/27 13:46:57;;;;;;;1.30;0.60;;;10.50;99.90;;;;;;5113513;28;20475;-65
2022/09/27 13:49:36;;;;;;;1.20;0.47;;;10.60;99.90;;;;;;5100405;28;20420;-65
2022/09/27 13:52:36;;;;;;;1.37;0.53;;;10.60;99.90;;;;;;5112684;28;20467;-65
2022/09/27 13:55:24;;;;;;;1.30;0.50;;;10.70;99.90;;;;;;5113485;28;20435;-64
2022/09/27 13:58:04;;;;;;;1.20;0.50;;;10.60;99.90;;;;;;5112590;28;20417;-64
2022/09/27 14:00:38;;;;;;;1.20;0.40;;;10.60;99.90;;;;;;5113032;28;20412;-64
2022/09/27 14:03:30;;;;;;;1.93;0.70;;;10.50;99.90;;;;;;5113094;28;21059;-64
2022/09/27 14:06:05;;;;;;;1.30;0.50;;;10.50;99.90;;;;;;5106097;28;20449;-65
2022/09/27 14:08:44;;;;;;;2.40;0.57;;;10.50;99.90;;;;;;5112659;28;20424;-65
2022/09/27 14:11:12;;;;;;;1.40;0.50;;;10.40;99.90;;;;;;5113127;28;20496;-64
2022/09/27 14:13:39;;;;;;;1.13;0.40;;;10.40;99.90;;;;;;5112492;28;20812;-64
2022/09/27 14:16:06;;;;;;;3.00;0.60;;;10.40;99.90;;;;;;5112631;28;20918;-64
2022/09/27 14:18:35;;;;;;;1.53;0.50;;;10.40;99.90;;;;;;5113157;28;20425;-64